Historyczne dane pomiarowe

Dodano dane terminowe – wersja testowa.

Dane z okresu 1951-2019

Wersja bazy: 1.34 [2019-03-16, lista zmian], aktualizacja planowana na 2019-04-15

Dane meteo z obszaru Polski uzyskane na podstawie danych udostępnionych przez Instytut Meteorologii i Gospodarki Wodnej – Państwowy Instytut Badawczy.

 

Wybierz Datę:    

       

TemperaturaWilgotnośćWiatrCiśnienieOpadyŚniegCzas trwania zjawisk
 Stacja t tx tn tng RH VA  wxwx mslp ppp RRR   cm mm wxwxwxwxwxwxwx
1994-08-14 15.1 19.3 11.5 9.6 60.5- 2.7 5.3---- 0.0------------
1994-08-13 16.4 21.7 14.0 13.8 80.3- 6.7 4.0---- 0.4------------
1994-08-12 17.1 19.7 15.2 7.1 86.0- 8.0 3.0---- 7.6------------
1994-08-11 18.4 23.5 16.5 13.1 82.8- 7.0 1.7---- 3.2------------
1994-08-10 17.6 27.7 11.7 9.6 69.5- 4.0 1.3---- 8.0------------
1994-08-09 18.6 23.1 17.1 12.6 88.0- 6.3 1.0---- 7.7------------
1994-08-08 21.4 26.7 17.7 16.6 75.0- 6.0 1.3---- 6.7------------
1994-08-07 24.7 31.1 16.9 12.9 66.0- 4.7 2.7---- 21.6------------
1994-08-06 25.4 35.1 12.8 8.7 57.8- 2.3 2.3---- 0.0------------
1994-08-05 23.2 33.0 13.9 10.9 66.8- 2.7 0.7---- 0.0------------
1994-08-04 21.3 28.8 15.4 10.6 67.3- 3.3 1.3---- 0.0------------
1994-08-03 24.6 31.5 18.7 15.7 66.0- 5.0 1.0---- 0.0------------
1994-08-02 26.0 33.4 21.1 18.0 58.5- 6.3 0.3---- 0.3------------
1994-08-01 26.0 35.9 15.5 11.6 57.8- 4.0 1.7---- 0.0------------
1994-07-31 25.2 35.5 14.3 11.3 62.8- 2.3 1.3---- 0.0------------
1994-07-30 25.2 35.4 13.6 9.3 55.8- 2.7 1.7---- 0.0------------
1994-07-29 25.4 35.2 13.6 9.2 52.8- 3.0 1.0---- 0.0------------
1994-07-28 23.7 33.5 12.1 8.2 56.0- 2.7 1.0---- 0.0------------
1994-07-27 23.5 33.5 13.5 9.6 61.0- 3.3 0.3---- 0.0------------
1994-07-26 23.0 34.6 12.5 8.5 59.3- 3.0 0.7---- 0.0------------
1994-07-25 22.8 32.0 10.7 6.7 58.5- 3.0 1.0---- 0.0------------
1994-07-24 23.6 31.5 10.2 10.3 59.3- 2.0 0.7---- 0.0------------
1994-07-23 22.2 29.2 9.6 5.9 61.3- 2.0 0.0---- 0.0------------
1994-07-22 20.5 29.0 8.8 5.4 60.5- 2.0 1.3---- 0.0------------
1994-07-21 18.7 26.3 8.2 4.8 65.3- 0.0 0.0---- 0.0------------
1994-07-20 18.4 24.2 11.1 7.1 61.3- 1.3 1.0---- 0.0------------
1994-07-19 18.5 23.3 13.3 9.6 70.3- 6.0 2.0---- 0.0------------
1994-07-18 20.9 26.7 13.4 11.1 72.0- 4.0 1.7---- 0.0------------
1994-07-17 20.8 28.8 15.7 10.6 79.5- 4.0 1.0---- 34.7------------
1994-07-16 22.4 30.8 13.6 10.1 67.3- 4.3 2.3---- 0.3------------
1994-07-15 22.9 29.6 13.2 8.9 66.5- 3.0 1.7---- 0.0------------
1994-07-14 22.2 30.3 11.7 6.3 66.3- 5.3 1.3---- 0.0------------
1994-07-13 21.5 28.0 11.7 7.3 62.5- 4.0 2.3---- 0.0------------
1994-07-12 20.5 26.4 13.7 6.3 70.5- 4.0 1.7---- 0.0------------
1994-07-11 19.1 25.0 11.6 7.8 70.8- 5.0 1.7---- 0.0------------
1994-07-10 16.9 22.7 11.7 11.8 74.8- 5.0 2.3---- 0.0------------
1994-07-09 13.4 17.1 11.7 10.6 83.0- 8.0 2.0---- 6.7------------
1994-07-08 16.2 19.3 12.9 11.6 72.8- 5.0 5.0---- 3.7------------
1994-07-07 19.4 25.1 9.9 5.9 67.0- 5.7 2.0---- 4.0------------
1994-07-06 20.3 25.6 10.6 5.3 61.0- 3.0 1.0---- 0.0------------
1994-07-05 20.0 27.6 13.1 8.1 67.5- 6.7 2.7---- 0.0------------
1994-07-04 22.3 31.1 9.5 4.5 57.8- 2.3 1.0---- 0.0------------
1994-07-03 20.9 28.3 8.1 3.3 58.8- 0.0 0.0---- 0.0------------
1994-07-02 19.5 26.7 7.9 3.5 62.0- 0.0 1.0---- 0.0------------
1994-07-01 18.1 24.3 10.3 5.4 63.3- 0.0 1.0---- 0.0------------
1994-06-30 21.3 30.4 18.5 14.7 77.8- 3.0 1.7---- 0.0------------
1994-06-29 25.5 32.5 15.2 11.2 68.0- 2.3 0.7---- 0.0------------
1994-06-28 24.7 31.1 17.1 13.1 69.8- 4.0 0.7---- 0.0------------
1994-06-27 25.9 32.6 16.7 15.6 68.0- 4.0 1.3---- 0.0------------
1994-06-26 23.0 29.6 6.4 5.2 66.8- 0.7 1.7---- 0.0------------
1994-06-25 16.1 24.5 2.8 -1.0 55.8- 0.0 0.3---- 0.0------------
1994-06-24 15.0 20.7 6.8 2.1 56.5- 0.7 3.3---- 0.0------------
1994-06-23 17.6 22.9 15.5 13.4 58.3- 3.0 7.0---- 0.0------------
1994-06-22 18.7 26.5 8.0 4.9 66.8- 5.3 1.7---- 0.0------------
1994-06-21 16.2 21.7 5.3 1.6 68.3- 2.3 0.3---- 0.0------------
1994-06-20 15.3 22.2 10.7 6.8 74.0- 6.0 4.3---- 0.0------------
1994-06-19 16.8 24.8 11.5 10.6 65.5- 5.0 2.7---- 0.0------------
1994-06-18 11.2 17.8 2.8 -0.3 74.8- 5.3 2.0---- 7.2------------
1994-06-17 11.0 13.6 8.2 7.5 69.3- 5.0 3.0---- 0.0------------
1994-06-16 11.0 18.6 6.6 2.6 76.3- 7.7 3.3---- 5.7------------
247.3 ms

 

Źródłem pochodzenia danych jest Instytut Meteorologii i Gospodarki Wodnej – Państwowy Instytut Badawczy. Dane Instytutu Meteorologii i Gospodarki Wodnej – Państwowego Instytutu Badawczego zostały przetworzone.

Dane źródłowe można odnaleźć na stronie https://dane.imgw.pl